Home

PKWA Terminal Aerodrome Forecast (TAF)small logo


TAF provided by NWS Guam
2015/07/02 12:59
TAF PKWA 021141Z 0212/0312 02012KT P6SM VCSH FEW016 SCT040 BKN120

      



Site Map | Contact Us | Copyright © 2007 Atmospheric Technology Services Company. All rights reserved.